Time;durP1;ratioP1;P1;durP2;ratioP2;P2;SDS_P1;SDS_P2;PMS_P1;PMS_P2;Temp;Humidity;BMP_temperature;BMP_pressure;BME280_temperature;BME280_humidity;BME280_pressure;Samples;Min_cycle;Max_cycle;Signal;HPM_P1;HPM_P2
2023/07/26 00:00:04;;;;;;;16.00;11.10;;;;;;;15.76;100.00;97652.77;137595;1272;22094;-83
2023/07/26 00:03:05;;;;;;;19.20;14.60;;;;;;;15.76;100.00;97661.02;137640;1272;22606;-83
2023/07/26 00:06:06;;;;;;;14.60;13.10;;;;;;;15.78;100.00;97662.55;137615;1272;22098;-83
2023/07/26 00:09:08;;;;;;;17.30;12.70;;;;;;;15.76;100.00;97668.23;137681;1273;22066;-83
2023/07/26 00:12:09;;;;;;;18.50;10.90;;;;;;;15.75;100.00;97667.39;137658;1272;22115;-83
2023/07/26 00:15:10;;;;;;;12.00;9.90;;;;;;;15.76;100.00;97669.79;137615;1273;22151;-84
2023/07/26 00:18:11;;;;;;;15.40;11.50;;;;;;;15.75;100.00;97671.75;137652;1273;22052;-84
2023/07/26 00:21:13;;;;;;;13.70;12.40;;;;;;;15.70;100.00;97668.90;137664;1273;22488;-84
2023/07/26 00:24:14;;;;;;;15.30;11.20;;;;;;;15.65;100.00;97668.36;137656;1273;22170;-83
2023/07/26 00:27:17;;;;;;;15.10;10.20;;;;;;;15.65;100.00;97680.09;137676;1273;22059;-84
2023/07/26 00:30:18;;;;;;;18.70;10.90;;;;;;;15.63;100.00;97683.65;137641;1272;22105;-84
2023/07/26 00:33:19;;;;;;;17.30;10.10;;;;;;;15.64;100.00;97686.10;137683;1272;22067;-82
2023/07/26 00:36:20;;;;;;;18.40;11.00;;;;;;;15.61;100.00;97678.61;137669;1272;22205;-82
2023/07/26 00:39:21;;;;;;;13.10;10.30;;;;;;;15.58;100.00;97681.48;137646;1272;22116;-83
2023/07/26 00:42:22;;;;;;;12.40;9.20;;;;;;;15.54;100.00;97685.60;137664;1272;22267;-82
2023/07/26 00:45:24;;;;;;;14.60;8.90;;;;;;;15.51;100.00;97680.06;137644;1272;22256;-83
2023/07/26 00:48:25;;;;;;;14.10;8.70;;;;;;;15.47;100.00;97680.70;137630;1272;22067;-84
2023/07/26 00:51:26;;;;;;;11.70;8.60;;;;;;;15.45;100.00;97682.85;137659;1273;22115;-84
2023/07/26 00:54:27;;;;;;;10.40;9.00;;;;;;;15.42;100.00;97681.86;137647;1273;22478;-82
2023/07/26 00:57:28;;;;;;;14.20;9.40;;;;;;;15.31;100.00;97682.16;137629;1273;22226;-83
2023/07/26 01:00:29;;;;;;;10.00;9.10;;;;;;;15.20;100.00;97684.71;137663;1273;22214;-83
2023/07/26 01:03:31;;;;;;;12.00;10.00;;;;;;;15.20;100.00;97681.03;137622;1273;22128;-83
2023/07/26 01:06:32;;;;;;;13.00;11.70;;;;;;;15.23;100.00;97679.39;137632;1273;22182;-83
2023/07/26 01:09:33;;;;;;;13.90;12.30;;;;;;;15.26;100.00;97680.18;137658;1272;22038;-83
2023/07/26 01:12:34;;;;;;;17.50;13.70;;;;;;;15.26;100.00;97675.95;137676;1273;22405;-84
2023/07/26 01:15:36;;;;;;;15.40;9.70;;;;;;;15.27;100.00;97676.48;137507;1272;22077;-82
2023/07/26 01:18:37;;;;;;;11.00;9.90;;;;;;;15.25;100.00;97676.85;137617;1272;22179;-82
2023/07/26 01:21:38;;;;;;;14.20;9.10;;;;;;;15.28;100.00;97671.02;137631;1272;22078;-83
2023/07/26 01:24:39;;;;;;;13.20;8.80;;;;;;;15.30;100.00;97664.30;137602;1272;22051;-83
2023/07/26 01:27:41;;;;;;;21.70;9.70;;;;;;;15.32;100.00;97652.34;137656;1273;22487;-82
2023/07/26 01:30:42;;;;;;;11.70;10.30;;;;;;;15.32;100.00;97642.34;137653;1272;22058;-84
2023/07/26 01:33:43;;;;;;;12.40;10.20;;;;;;;15.25;100.00;97641.98;137638;1272;22388;-82
2023/07/26 01:36:44;;;;;;;15.30;9.90;;;;;;;15.18;100.00;97649.52;137610;1272;22068;-82
2023/07/26 01:39:46;;;;;;;23.60;10.20;;;;;;;15.18;100.00;97648.30;137648;1272;22123;-82
2023/07/26 01:42:47;;;;;;;12.60;9.00;;;;;;;15.16;100.00;97647.48;137636;1272;22040;-82
2023/07/26 01:45:48;;;;;;;12.90;9.80;;;;;;;15.14;100.00;97659.10;137653;1272;22262;-82
2023/07/26 01:48:49;;;;;;;13.00;10.00;;;;;;;15.16;100.00;97656.23;137606;1272;22274;-82
2023/07/26 01:51:50;;;;;;;11.10;9.40;;;;;;;15.22;100.00;97656.09;137625;1272;22272;-82
2023/07/26 01:54:51;;;;;;;15.50;10.50;;;;;;;15.27;100.00;97657.19;137671;1273;22065;-83
2023/07/26 01:57:53;;;;;;;12.60;10.00;;;;;;;15.31;100.00;97654.80;137602;1272;22074;-82
2023/07/26 02:00:54;;;;;;;10.90;9.90;;;;;;;15.27;100.00;97653.48;137607;1273;22145;-81
2023/07/26 02:03:55;;;;;;;10.70;9.70;;;;;;;15.24;100.00;97654.27;137619;1273;22207;-82
2023/07/26 02:06:56;;;;;;;18.90;11.00;;;;;;;15.22;100.00;97663.11;137669;1272;22153;-80
2023/07/26 02:09:57;;;;;;;19.30;10.40;;;;;;;15.18;100.00;97666.69;137647;1273;22065;-84
2023/07/26 02:12:58;;;;;;;16.20;9.70;;;;;;;15.21;100.00;97665.23;137655;1272;22142;-84
2023/07/26 02:16:00;;;;;;;18.70;10.00;;;;;;;15.20;100.00;97659.30;137614;1273;22061;-83
2023/07/26 02:19:01;;;;;;;9.80;8.90;;;;;;;15.17;100.00;97661.12;137631;1273;22045;-81
2023/07/26 02:22:02;;;;;;;16.60;9.70;;;;;;;15.17;100.00;97669.52;137634;1273;22841;-82
2023/07/26 02:25:03;;;;;;;15.10;10.20;;;;;;;15.20;100.00;97676.98;137634;1273;22113;-81
2023/07/26 02:28:05;;;;;;;212.00;19.40;;;;;;;15.23;100.00;97673.39;137592;1273;22039;-83
2023/07/26 02:31:06;;;;;;;15.70;10.00;;;;;;;15.20;100.00;97674.72;137598;1272;22126;-83
2023/07/26 02:34:07;;;;;;;12.80;9.80;;;;;;;15.20;100.00;97677.17;137617;1272;22702;-82
2023/07/26 02:37:08;;;;;;;101.50;14.20;;;;;;;15.19;100.00;97676.84;137640;1272;22235;-82
2023/07/26 02:40:09;;;;;;;14.10;9.40;;;;;;;15.17;100.00;97674.79;137636;1263;22699;-83
2023/07/26 02:43:11;;;;;;;17.30;9.60;;;;;;;15.12;100.00;97679.66;137646;1272;22059;-83
2023/07/26 02:46:12;;;;;;;14.90;10.40;;;;;;;15.08;100.00;97677.65;137636;1272;22107;-81
2023/07/26 02:49:13;;;;;;;12.20;9.80;;;;;;;15.10;100.00;97680.75;137604;1272;22111;-81
2023/07/26 02:52:14;;;;;;;11.50;9.30;;;;;;;15.12;100.00;97676.48;137646;1272;22208;-81
2023/07/26 02:55:16;;;;;;;11.80;10.20;;;;;;;15.14;100.00;97672.41;137636;1272;22383;-81
2023/07/26 02:58:17;;;;;;;12.60;10.00;;;;;;;15.15;100.00;97669.94;137595;1272;22115;-81
2023/07/26 03:01:18;;;;;;;12.50;9.40;;;;;;;15.16;100.00;97672.20;137610;1272;22217;-83
2023/07/26 03:04:19;;;;;;;16.10;10.20;;;;;;;15.17;100.00;97669.19;137615;1272;22554;-83
2023/07/26 03:07:20;;;;;;;120.90;15.20;;;;;;;15.20;100.00;97667.17;137641;1272;22251;-80
2023/07/26 03:10:22;;;;;;;21.60;10.10;;;;;;;15.24;100.00;97664.61;137613;1272;22283;-83
2023/07/26 03:13:23;;;;;;;26.20;10.40;;;;;;;15.27;100.00;97663.66;137641;1272;22144;-82
2023/07/26 03:16:24;;;;;;;17.20;10.80;;;;;;;15.30;100.00;97671.48;137621;1273;22182;-84
2023/07/26 03:19:26;;;;;;;12.90;9.30;;;;;;;15.30;100.00;97672.71;137592;1272;22105;-83
2023/07/26 03:22:27;;;;;;;12.70;8.90;;;;;;;15.27;100.00;97671.02;137619;1272;22223;-84
2023/07/26 03:25:28;;;;;;;14.90;9.40;;;;;;;15.27;100.00;97670.49;137652;1272;22516;-84
2023/07/26 03:28:29;;;;;;;17.10;9.40;;;;;;;15.27;100.00;97675.40;137609;1272;22115;-84
2023/07/26 03:31:31;;;;;;;15.40;9.10;;;;;;;15.29;100.00;97674.48;137654;1272;22034;-83
2023/07/26 03:34:34;;;;;;;10.70;9.00;;;;;;;15.30;100.00;97667.97;137633;1272;22213;-83
2023/07/26 03:37:36;;;;;;;24.20;9.60;;;;;;;15.33;100.00;97668.42;137627;1272;22770;-82
2023/07/26 03:40:38;;;;;;;16.10;8.90;;;;;;;15.39;100.00;97665.65;137634;1272;22585;-83
2023/07/26 03:43:39;;;;;;;12.30;9.40;;;;;;;15.41;100.00;97667.34;137599;1269;22495;-83
2023/07/26 03:46:40;;;;;;;15.20;8.80;;;;;;;15.48;100.00;97673.13;137618;1272;22257;-83
2023/07/26 03:49:48;;;;;;;14.70;8.80;;;;;;;15.55;100.00;97675.02;137563;1272;22540;-83
2023/07/26 03:52:49;;;;;;;537.30;40.30;;;;;;;15.58;100.00;97678.14;137632;1272;22143;-85
2023/07/26 03:55:50;;;;;;;15.60;8.70;;;;;;;15.56;100.00;97677.30;137592;1272;22279;-82
2023/07/26 03:58:52;;;;;;;12.80;9.00;;;;;;;15.56;100.00;97679.04;137570;1263;22101;-82
2023/07/26 04:01:53;;;;;;;10.40;8.80;;;;;;;15.57;100.00;97682.89;137626;1273;22116;-83
2023/07/26 04:04:54;;;;;;;12.20;9.10;;;;;;;15.63;100.00;97684.34;137581;1260;22351;-83
2023/07/26 04:07:55;;;;;;;86.90;12.90;;;;;;;15.70;100.00;97688.02;137590;1263;22370;-82
2023/07/26 04:10:57;;;;;;;12.40;8.90;;;;;;;15.74;100.00;97687.02;137613;1272;22252;-83
2023/07/26 04:13:59;;;;;;;134.50;16.20;;;;;;;15.79;100.00;97690.77;137595;1273;22093;-82
2023/07/26 04:17:09;;;;;;;22.90;9.00;;;;;;;15.83;100.00;97696.27;137543;1272;22103;-81
2023/07/26 04:20:11;;;;;;;62.00;11.50;;;;;;;15.87;100.00;97700.71;137595;1273;22160;-82
2023/07/26 04:23:12;;;;;;;14.40;9.60;;;;;;;15.90;100.00;97701.67;137572;1269;22161;-82
2023/07/26 04:26:13;;;;;;;11.10;8.80;;;;;;;15.96;100.00;97698.91;137575;1272;22146;-81
2023/07/26 04:29:15;;;;;;;11.90;8.30;;;;;;;15.97;100.00;97699.05;137606;1273;22104;-83
2023/07/26 04:32:17;;;;;;;58.30;10.80;;;;;;;15.96;100.00;97700.64;137611;1272;22258;-85
2023/07/26 04:35:18;;;;;;;29.10;9.00;;;;;;;15.95;100.00;97705.95;137590;1273;22114;-82
2023/07/26 04:38:20;;;;;;;12.00;8.80;;;;;;;15.96;100.00;97707.49;137598;1272;22134;-82
2023/07/26 04:41:21;;;;;;;16.80;9.00;;;;;;;16.00;100.00;97703.88;137507;1272;22128;-82
2023/07/26 04:44:23;;;;;;;13.60;8.40;;;;;;;16.03;100.00;97697.65;137599;1270;22061;-83
2023/07/26 04:47:24;;;;;;;11.50;9.00;;;;;;;16.04;100.00;97694.81;137569;1272;22277;-80
2023/07/26 04:50:26;;;;;;;9.60;8.50;;;;;;;16.03;100.00;97693.25;137548;1272;22098;-82
2023/07/26 04:57:11;;;;;;;9.10;8.20;;;;;;;16.05;100.00;97687.25;137530;1272;22534;-81
2023/07/26 05:00:13;;;;;;;24.70;8.50;;;;;;;16.08;100.00;97688.91;137521;1272;22078;-80
2023/07/26 05:03:15;;;;;;;13.70;9.20;;;;;;;16.14;100.00;97691.53;137551;1272;22112;-82
2023/07/26 05:06:26;;;;;;;11.90;9.50;;;;;;;16.19;100.00;97698.77;137530;1273;22103;-81
2023/07/26 05:09:28;;;;;;;16.20;11.00;;;;;;;16.20;100.00;97704.52;137541;1270;22591;-81
2023/07/26 05:12:29;;;;;;;13.80;9.70;;;;;;;16.22;100.00;97715.86;137558;1273;22128;-82
2023/07/26 05:15:30;;;;;;;12.50;9.50;;;;;;;16.26;100.00;97719.09;137552;1270;22223;-80
2023/07/26 05:18:32;;;;;;;10.80;9.00;;;;;;;16.31;100.00;97722.83;137484;1273;22229;-82
2023/07/26 05:21:33;;;;;;;10.00;9.00;;;;;;;16.34;100.00;97724.67;137525;1273;22130;-81
2023/07/26 05:24:37;;;;;;;9.50;8.70;;;;;;;16.34;100.00;97730.46;137520;1273;22736;-81
2023/07/26 05:27:39;;;;;;;;;;;;;;;16.36;100.00;97736.89;137582;1273;22329;-83
2023/07/26 05:30:40;;;;;;;10.40;9.40;;;;;;;16.39;100.00;97740.30;137529;1273;22173;-82
2023/07/26 05:33:42;;;;;;;17.70;10.10;;;;;;;16.44;100.00;97737.36;137567;1273;22127;-82
2023/07/26 05:36:44;;;;;;;11.30;9.10;;;;;;;16.46;100.00;97740.80;137536;1273;22106;-83
2023/07/26 05:39:48;;;;;;;12.30;9.30;;;;;;;16.53;100.00;97751.70;137615;1273;22603;-83
2023/07/26 05:42:50;;;;;;;12.90;10.50;;;;;;;16.68;100.00;97752.70;137590;1267;22288;-84
2023/07/26 05:45:55;;;;;;;11.60;10.40;;;;;;;16.78;100.00;97757.84;137544;1272;22095;-83
2023/07/26 05:48:58;;;;;;;15.50;9.60;;;;;;;16.81;100.00;97761.79;137578;1272;22361;-84
2023/07/26 05:52:00;;;;;;;11.70;10.60;;;;;;;16.85;100.00;97763.93;137603;1273;22896;-84
2023/07/26 05:55:04;;;;;;;16.90;10.60;;;;;;;16.91;100.00;97761.50;137615;1273;22046;-85
2023/07/26 05:58:08;;;;;;;14.20;11.50;;;;;;;16.90;100.00;97761.36;137613;1273;22487;-83
2023/07/26 06:01:10;;;;;;;20.30;11.20;;;;;;;16.91;100.00;97760.08;137537;1273;22199;-84
2023/07/26 06:04:13;;;;;;;23.60;12.00;;;;;;;17.01;100.00;97757.31;137597;1263;22152;-83
2023/07/26 06:07:16;;;;;;;13.30;10.10;;;;;;;17.16;100.00;97759.98;137575;1273;22129;-84
2023/07/26 06:10:19;;;;;;;12.30;9.80;;;;;;;17.32;100.00;97762.48;137643;1267;22144;-83
2023/07/26 06:13:21;;;;;;;15.40;10.10;;;;;;;17.41;100.00;97766.08;137648;1273;22018;-85
2023/07/26 06:16:24;;;;;;;14.10;10.30;;;;;;;17.48;100.00;97775.17;137562;1273;22084;-83
2023/07/26 06:19:26;;;;;;;15.20;10.10;;;;;;;17.44;100.00;97778.45;137585;1272;22093;-83
2023/07/26 06:22:27;;;;;;;14.20;9.90;;;;;;;17.35;100.00;97781.39;137625;1272;22118;-84
2023/07/26 06:25:29;;;;;;;14.40;9.50;;;;;;;17.22;100.00;97777.39;137554;1272;22264;-83
2023/07/26 06:28:30;;;;;;;15.70;10.40;;;;;;;17.03;100.00;97775.86;137566;1273;22271;-84
2023/07/26 06:31:32;;;;;;;13.40;9.30;;;;;;;16.91;100.00;97775.73;137543;1272;22121;-83
2023/07/26 06:34:33;;;;;;;12.30;10.10;;;;;;;16.76;100.00;97776.86;137566;1272;22343;-82
2023/07/26 06:37:35;;;;;;;12.00;9.80;;;;;;;16.62;100.00;97774.80;137603;1272;22602;-84
2023/07/26 06:40:36;;;;;;;15.30;10.10;;;;;;;16.51;100.00;97789.85;137572;1272;22113;-84
2023/07/26 06:43:38;;;;;;;17.50;9.40;;;;;;;16.40;100.00;97790.84;137604;1272;22280;-83
2023/07/26 06:46:39;;;;;;;13.80;9.90;;;;;;;16.40;100.00;97793.67;137625;1272;22250;-84
2023/07/26 06:49:40;;;;;;;12.50;9.70;;;;;;;16.35;100.00;97793.80;137602;1272;22583;-85
2023/07/26 06:52:42;;;;;;;16.30;9.90;;;;;;;16.25;100.00;97793.73;137627;1272;22111;-82
2023/07/26 06:55:43;;;;;;;12.70;9.20;;;;;;;16.20;100.00;97792.83;137632;1272;22096;-83
2023/07/26 06:58:44;;;;;;;12.50;9.80;;;;;;;16.18;100.00;97799.00;137559;1272;22310;-82
2023/07/26 07:01:46;;;;;;;19.20;10.60;;;;;;;16.15;100.00;97798.21;137560;1272;22308;-83
2023/07/26 07:04:47;;;;;;;20.30;10.70;;;;;;;16.07;100.00;97798.61;137534;1272;22155;-84
2023/07/26 07:07:49;;;;;;;16.70;10.50;;;;;;;16.04;100.00;97803.95;137481;1272;22143;-82
2023/07/26 07:10:54;;;;;;;13.30;10.00;;;;;;;16.08;100.00;97810.17;137643;1272;22831;-84
2023/07/26 07:14:22;;;;;;;;;;;;;;;;;;;;;
2023/07/26 07:18:18;;;;;;;15.90;11.50;;;;;;;16.05;100.00;97813.74;136844;1278;22185;-85
2023/07/26 07:21:22;;;;;;;15.50;10.60;;;;;;;16.04;100.00;97822.04;136997;1272;22196;-83
2023/07/26 07:24:24;;;;;;;;;;;;;;;16.05;100.00;97821.66;136964;1278;22380;-83
2023/07/26 07:27:25;;;;;;;16.90;11.10;;;;;;;16.02;100.00;97821.02;136944;1278;22123;-86
2023/07/26 07:30:27;;;;;;;23.30;15.90;;;;;;;16.04;100.00;97826.59;137003;1278;22334;-84
2023/07/26 07:33:28;;;;;;;15.50;11.10;;;;;;;16.17;100.00;97831.52;136945;1278;22218;-83
2023/07/26 07:36:29;;;;;;;13.90;11.40;;;;;;;16.22;100.00;97840.33;136960;1272;22191;-84
2023/07/26 07:39:31;;;;;;;15.90;12.10;;;;;;;16.18;100.00;97840.08;136946;1278;22145;-84
2023/07/26 07:42:32;;;;;;;21.80;12.30;;;;;;;16.09;100.00;97845.58;136988;1278;22143;-83
2023/07/26 07:45:33;;;;;;;14.70;13.20;;;;;;;16.02;100.00;97849.11;136945;1278;23103;-84
2023/07/26 07:48:35;;;;;;;15.60;13.70;;;;;;;16.00;100.00;97850.40;136981;1278;22228;-84
2023/07/26 07:51:36;;;;;;;16.20;13.70;;;;;;;15.99;100.00;97849.01;136856;1278;22180;-84
2023/07/26 07:54:39;;;;;;;16.10;13.50;;;;;;;15.92;100.00;97848.48;137342;1272;22454;-82
2023/07/26 07:57:41;;;;;;;16.40;14.10;;;;;;;15.90;100.00;97846.25;137544;1272;22143;-82
2023/07/26 08:00:45;;;;;;;18.10;15.50;;;;;;;15.89;100.00;97850.30;137593;1272;22120;-83
2023/07/26 08:03:47;;;;;;;20.40;15.10;;;;;;;15.83;100.00;97856.94;137622;1272;22604;-84
2023/07/26 08:06:48;;;;;;;17.40;15.30;;;;;;;15.82;100.00;97855.91;137569;1272;22157;-84
2023/07/26 08:09:52;;;;;;;20.50;16.40;;;;;;;15.78;100.00;97859.36;137612;1272;22142;-84
2023/07/26 08:12:53;;;;;;;18.80;16.80;;;;;;;15.76;100.00;97853.61;137570;1272;22261;-83
2023/07/26 08:15:55;;;;;;;19.50;16.50;;;;;;;15.81;100.00;97851.73;137610;1272;22142;-82
2023/07/26 08:18:57;;;;;;;25.20;16.90;;;;;;;15.95;100.00;97851.56;137605;1273;22416;-82
2023/07/26 08:21:59;;;;;;;17.20;15.70;;;;;;;16.06;100.00;97853.20;137681;1273;22152;-82
2023/07/26 08:25:00;;;;;;;15.60;13.90;;;;;;;16.13;100.00;97851.27;137601;1272;22203;-82
2023/07/26 08:28:01;;;;;;;15.80;14.30;;;;;;;16.24;100.00;97851.85;137600;1273;22191;-82
2023/07/26 08:31:02;;;;;;;18.70;15.10;;;;;;;16.32;100.00;97852.36;137557;1272;22284;-82
2023/07/26 08:34:04;;;;;;;15.70;14.30;;;;;;;16.40;100.00;97858.27;137574;1273;22117;-81
2023/07/26 08:37:05;;;;;;;16.20;14.70;;;;;;;16.38;100.00;97867.30;137559;1273;22188;-82
2023/07/26 08:40:06;;;;;;;16.10;14.40;;;;;;;16.22;100.00;97871.75;137588;1272;22140;-84
2023/07/26 08:43:08;;;;;;;17.30;14.60;;;;;;;16.14;100.00;97877.56;137590;1272;22129;-81
2023/07/26 08:46:09;;;;;;;19.00;15.90;;;;;;;16.09;100.00;97881.03;137623;1272;22105;-83
2023/07/26 08:49:11;;;;;;;17.40;15.80;;;;;;;16.03;100.00;97878.91;137584;1273;22479;-83
2023/07/26 08:52:12;;;;;;;17.40;15.70;;;;;;;16.01;100.00;97888.80;137616;1273;22145;-84
2023/07/26 08:55:13;;;;;;;17.70;16.00;;;;;;;15.91;100.00;97901.48;137614;1273;22170;-87
2023/07/26 08:58:14;;;;;;;18.60;17.00;;;;;;;15.80;100.00;97904.04;137602;1272;22128;-84
2023/07/26 09:01:15;;;;;;;19.60;17.70;;;;;;;15.79;100.00;97895.45;137668;1272;22274;-83
2023/07/26 09:04:17;;;;;;;19.90;17.90;;;;;;;15.83;100.00;97893.08;137576;1272;22109;-84
2023/07/26 09:07:18;;;;;;;21.10;18.90;;;;;;;15.85;100.00;97891.27;137536;1273;22723;-84
2023/07/26 09:10:20;;;;;;;19.60;17.60;;;;;;;15.90;100.00;97890.64;137582;1273;22229;-85
2023/07/26 09:13:21;;;;;;;19.30;17.60;;;;;;;15.89;100.00;97894.35;137599;1273;22104;-85
2023/07/26 09:16:22;;;;;;;21.00;18.60;;;;;;;15.87;100.00;97897.55;137585;1272;22656;-86
2023/07/26 09:19:24;;;;;;;20.00;18.10;;;;;;;15.85;100.00;97906.36;137574;1273;22527;-83
2023/07/26 09:22:26;;;;;;;22.00;19.80;;;;;;;15.83;100.00;97910.10;137613;1273;22362;-83
2023/07/26 09:25:28;;;;;;;20.40;18.40;;;;;;;15.82;100.00;97915.39;137575;1272;22107;-83
2023/07/26 09:28:29;;;;;;;20.90;18.90;;;;;;;15.86;100.00;97914.41;137556;1272;22433;-84
2023/07/26 09:31:31;;;;;;;23.00;18.50;;;;;;;15.88;100.00;97918.40;137592;1272;22772;-84
2023/07/26 09:34:32;;;;;;;20.20;18.30;;;;;;;15.89;100.00;97915.05;137578;1272;22112;-84
2023/07/26 09:37:33;;;;;;;20.10;18.10;;;;;;;15.90;100.00;97915.71;137585;1272;22236;-85
2023/07/26 09:40:34;;;;;;;20.00;18.30;;;;;;;15.87;100.00;97923.86;137564;1272;22137;-84
2023/07/26 09:43:36;;;;;;;20.60;18.40;;;;;;;15.78;100.00;97924.95;137577;1273;22105;-84
2023/07/26 09:46:37;;;;;;;18.70;16.80;;;;;;;15.66;100.00;97921.92;137551;1272;22122;-85
2023/07/26 09:49:38;;;;;;;19.20;17.30;;;;;;;15.57;100.00;97923.30;137553;1272;22219;-84
2023/07/26 09:52:39;;;;;;;21.50;18.80;;;;;;;15.54;100.00;97921.95;137584;1260;22216;-85
2023/07/26 09:55:41;;;;;;;21.50;19.20;;;;;;;15.51;100.00;97921.33;137662;1257;22213;-87
2023/07/26 09:58:42;;;;;;;20.20;17.90;;;;;;;15.52;100.00;97914.98;137630;1272;22182;-86
2023/07/26 10:01:44;;;;;;;19.90;18.00;;;;;;;15.54;100.00;97915.27;137582;1272;22212;-85
2023/07/26 10:04:45;;;;;;;18.30;16.40;;;;;;;15.60;100.00;97923.42;137581;1272;22113;-85
2023/07/26 10:07:46;;;;;;;17.80;15.60;;;;;;;15.57;100.00;97928.20;137582;1272;22290;-83
2023/07/26 10:10:47;;;;;;;15.60;14.20;;;;;;;15.53;100.00;97929.85;137517;1272;22155;-83
2023/07/26 10:13:49;;;;;;;15.10;12.30;;;;;;;15.54;100.00;97926.66;137520;1273;23033;-83
2023/07/26 10:16:50;;;;;;;13.40;12.10;;;;;;;15.56;100.00;97924.54;137543;1273;22285;-85
2023/07/26 10:19:51;;;;;;;12.20;10.90;;;;;;;15.60;100.00;97922.38;137511;1272;22344;-85
2023/07/26 10:22:53;;;;;;;8.50;7.60;;;;;;;15.68;100.00;97927.31;137379;1272;197916;-83
2023/07/26 10:25:54;;;;;;;10.40;8.20;;;;;;;15.64;100.00;97927.94;137538;1273;22392;-81
2023/07/26 10:28:59;;;;;;;7.70;6.50;;;;;;;15.64;100.00;97929.67;137532;1273;22451;-83
2023/07/26 10:32:00;;;;;;;6.20;5.60;;;;;;;15.57;100.00;97932.41;137553;1272;22160;-84
2023/07/26 10:35:01;;;;;;;7.90;4.90;;;;;;;15.32;100.00;97939.96;137566;1272;22277;-82
2023/07/26 10:38:03;;;;;;;9.20;3.50;;;;;;;14.98;100.00;97945.77;137573;1272;22459;-85
2023/07/26 10:41:04;;;;;;;6.60;3.60;;;;;;;14.69;100.00;97949.80;137571;1272;22137;-84
2023/07/26 10:44:05;;;;;;;4.10;3.70;;;;;;;14.45;100.00;97958.63;137544;1272;22338;-82
2023/07/26 10:47:06;;;;;;;7.60;3.70;;;;;;;14.25;100.00;97965.59;137607;1269;22233;-84
2023/07/26 10:50:08;;;;;;;7.80;3.60;;;;;;;14.04;100.00;97971.90;137579;1272;22108;-83
2023/07/26 10:53:09;;;;;;;7.80;3.90;;;;;;;13.84;100.00;97977.96;137549;1272;22109;-82
2023/07/26 10:56:10;;;;;;;6.50;4.10;;;;;;;13.71;100.00;97986.88;137552;1272;22256;-83
2023/07/26 10:59:12;;;;;;;7.30;4.50;;;;;;;13.57;100.00;97990.39;137566;1272;22118;-82
2023/07/26 11:02:13;;;;;;;9.20;4.30;;;;;;;13.45;100.00;97991.78;137552;1266;22133;-81
2023/07/26 11:05:15;;;;;;;5.00;4.30;;;;;;;13.33;100.00;97998.40;137586;1272;22157;-81
2023/07/26 11:08:16;;;;;;;6.50;4.20;;;;;;;13.28;100.00;98003.01;137624;1272;22108;-82
2023/07/26 11:11:17;;;;;;;8.40;4.20;;;;;;;13.25;100.00;98014.04;137547;1272;22119;-83
2023/07/26 11:14:18;;;;;;;7.80;3.80;;;;;;;13.27;100.00;98019.10;137591;1272;22091;-83
2023/07/26 11:17:19;;;;;;;9.70;4.20;;;;;;;13.26;100.00;98021.38;137596;1272;22651;-83
2023/07/26 11:20:21;;;;;;;7.40;4.50;;;;;;;13.23;100.00;98024.38;137546;1272;22131;-82
2023/07/26 11:23:22;;;;;;;7.50;4.70;;;;;;;13.22;100.00;98028.06;137566;1272;22109;-80
2023/07/26 11:26:23;;;;;;;7.70;4.20;;;;;;;13.22;100.00;98030.34;137601;1272;22362;-81
2023/07/26 11:29:24;;;;;;;7.70;4.40;;;;;;;13.22;100.00;98034.52;137596;1272;22120;-83
2023/07/26 11:32:26;;;;;;;9.00;4.00;;;;;;;13.29;100.00;98034.45;137584;1272;22122;-81
2023/07/26 11:35:27;;;;;;;9.50;3.90;;;;;;;13.33;100.00;98038.59;137576;1272;22100;-83
2023/07/26 11:38:29;;;;;;;7.60;3.70;;;;;;;13.34;100.00;98037.70;137636;1267;22430;-84
2023/07/26 11:41:30;;;;;;;10.30;4.00;;;;;;;13.42;100.00;98038.30;137562;1273;22201;-82
2023/07/26 11:44:31;;;;;;;5.40;3.70;;;;;;;13.43;100.00;98040.39;137601;1272;22118;-82
2023/07/26 11:47:35;;;;;;;8.80;3.60;;;;;;;13.43;100.00;98042.31;137571;1272;22172;-82
2023/07/26 11:50:36;;;;;;;5.50;3.60;;;;;;;13.45;100.00;98048.75;137637;1272;22197;-81
2023/07/26 11:53:41;;;;;;;5.50;3.50;;;;;;;13.43;100.00;98047.73;137647;1261;22135;-82
2023/07/26 11:56:42;;;;;;;7.40;3.90;;;;;;;13.38;100.00;98045.35;137617;1272;22118;-85
2023/07/26 11:59:43;;;;;;;8.00;3.90;;;;;;;13.34;100.00;98047.14;137559;1272;22156;-85
2023/07/26 12:02:45;;;;;;;4.00;3.30;;;;;;;13.30;100.00;98050.86;137616;1273;22091;-86
2023/07/26 12:05:46;;;;;;;11.70;3.80;;;;;;;13.29;100.00;98055.77;137279;1273;22432;-83
2023/07/26 12:08:47;;;;;;;8.80;3.90;;;;;;;13.23;100.00;98055.48;137084;1279;22142;-84
2023/07/26 12:11:48;;;;;;;7.10;3.60;;;;;;;13.14;100.00;98057.48;137080;1279;22144;-84
2023/07/26 12:14:50;;;;;;;5.70;3.80;;;;;;;13.15;100.00;98063.05;137125;1279;22111;-83
2023/07/26 12:17:51;;;;;;;6.20;4.10;;;;;;;13.11;100.00;98065.36;137082;1279;22188;-84
2023/07/26 12:20:54;;;;;;;7.90;4.30;;;;;;;13.10;100.00;98069.92;136980;1279;22223;-83
2023/07/26 12:23:55;;;;;;;9.00;4.30;;;;;;;13.08;100.00;98069.76;137078;1279;22115;-83
2023/07/26 12:26:56;;;;;;;6.80;4.30;;;;;;;13.10;100.00;98074.29;136969;1279;22254;-83
2023/07/26 12:29:57;;;;;;;5.30;3.50;;;;;;;13.13;100.00;98073.38;136884;1279;22398;-83
2023/07/26 12:32:59;;;;;;;9.70;4.20;;;;;;;13.12;100.00;98076.00;136879;1279;22299;-82
2023/07/26 12:36:00;;;;;;;5.60;3.50;;;;;;;13.11;100.00;98078.82;136886;1279;22092;-84
2023/07/26 12:39:01;;;;;;;4.20;3.60;;;;;;;13.13;100.00;98087.88;136899;1272;22117;-84
2023/07/26 12:42:03;;;;;;;7.60;3.60;;;;;;;13.12;100.00;98088.93;136874;1279;22647;-82
2023/07/26 12:45:04;;;;;;;4.10;3.70;;;;;;;13.12;100.00;98089.11;136880;1279;22126;-83
2023/07/26 12:48:05;;;;;;;4.80;3.50;;;;;;;13.15;100.00;98089.08;136923;1279;22180;-84
2023/07/26 12:51:06;;;;;;;8.40;4.20;;;;;;;13.10;100.00;98097.35;136797;1279;22117;-84
2023/07/26 12:54:08;;;;;;;4.60;3.50;;;;;;;13.04;100.00;98101.42;136912;1273;22311;-83
2023/07/26 12:57:09;;;;;;;4.30;3.60;;;;;;;12.99;100.00;98106.34;136939;1279;22127;-81
2023/07/26 13:00:10;;;;;;;5.90;3.80;;;;;;;12.93;100.00;98104.98;136954;1279;22117;-82
2023/07/26 13:03:11;;;;;;;5.00;3.90;;;;;;;12.86;100.00;98110.81;137003;1279;22097;-85
2023/07/26 13:06:13;;;;;;;5.60;4.30;;;;;;;12.80;100.00;98113.84;136996;1279;22122;-85
2023/07/26 13:09:14;;;;;;;4.90;4.50;;;;;;;12.76;100.00;98116.31;136999;1279;22121;-84
2023/07/26 13:12:16;;;;;;;5.30;3.90;;;;;;;12.79;100.00;98124.31;136953;1279;22655;-85
2023/07/26 13:15:17;;;;;;;5.50;4.40;;;;;;;12.80;100.00;98130.08;136938;1279;22251;-85
2023/07/26 13:18:18;;;;;;;6.00;4.00;;;;;;;12.82;100.00;98131.98;136940;1279;22128;-82
2023/07/26 13:21:20;;;;;;;7.30;4.50;;;;;;;12.87;100.00;98132.29;136898;1279;22150;-83
2023/07/26 13:24:21;;;;;;;5.30;4.10;;;;;;;12.91;100.00;98140.45;136867;1272;22187;-84
2023/07/26 13:27:22;;;;;;;6.60;4.50;;;;;;;12.91;100.00;98143.42;136853;1279;22720;-83
2023/07/26 13:30:23;;;;;;;7.80;4.40;;;;;;;12.86;100.00;98144.86;136884;1279;22066;-83
2023/07/26 13:33:25;;;;;;;5.40;4.20;;;;;;;12.87;100.00;98147.48;136935;1279;22066;-84
2023/07/26 13:36:29;;;;;;;6.80;4.30;;;;;;;12.89;100.00;98149.90;136972;1276;22201;-83
2023/07/26 13:39:30;;;;;;;7.10;4.40;;;;;;;12.94;100.00;98154.58;137000;1279;22089;-84
2023/07/26 13:42:32;;;;;;;5.80;4.10;;;;;;;12.98;100.00;98155.58;136986;1279;22117;-84
2023/07/26 13:45:33;;;;;;;7.20;4.40;;;;;;;12.97;100.00;98158.55;136955;1279;22106;-84
2023/07/26 13:48:34;;;;;;;7.00;4.60;;;;;;;12.98;100.00;98157.50;136945;1265;22535;-84